createdAt,value
2019-03-21T00:02:04.739Z,36.53
2019-03-21T00:07:11.305Z,37.90
2019-03-21T00:12:18.621Z,35.73
2019-03-21T00:17:34.128Z,35.73
2019-03-21T00:22:47.015Z,36.80
2019-03-21T00:27:58.732Z,31.27
2019-03-21T00:33:10.014Z,36.70
2019-03-21T00:38:22.492Z,32.97
2019-03-21T00:43:34.749Z,42.50
2019-03-21T00:48:45.120Z,36.30
2019-03-21T00:53:55.852Z,37.70
2019-03-21T00:59:06.690Z,39.20
2019-03-21T01:04:17.592Z,46.23
2019-03-21T01:09:28.758Z,34.47
2019-03-21T01:14:43.106Z,42.07
2019-03-21T01:19:54.846Z,31.80
2019-03-21T01:25:09.475Z,38.47
2019-03-21T01:30:22.810Z,38.73
2019-03-21T01:35:35.384Z,38.53
2019-03-21T01:40:48.293Z,38.57
2019-03-21T01:46:00.244Z,36.80
2019-03-21T01:51:11.534Z,44.37
2019-03-21T01:56:23.454Z,39.93
2019-03-21T02:01:31.972Z,39.10
2019-03-21T02:06:39.324Z,37.70
2019-03-21T02:11:46.028Z,40.90
2019-03-21T02:16:54.204Z,41.83
2019-03-21T02:22:01.638Z,42.17
2019-03-21T02:27:11.394Z,47.03
2019-03-21T02:32:22.405Z,40.27
2019-03-21T02:37:32.733Z,41.50
2019-03-21T02:42:46.450Z,42.17
2019-03-21T02:47:58.475Z,44.03
2019-03-21T02:53:11.157Z,42.37
2019-03-21T02:58:22.718Z,44.10
2019-03-21T03:03:35.312Z,46.17
2019-03-21T03:08:46.144Z,43.87
2019-03-21T03:13:55.756Z,46.43
2019-03-21T03:19:07.076Z,43.37
2019-03-21T03:24:20.612Z,40.43
2019-03-21T03:29:35.556Z,40.63
2019-03-21T03:34:47.198Z,40.27
2019-03-21T03:39:59.686Z,39.90
2019-03-21T03:45:16.115Z,39.53
2019-03-21T03:50:30.390Z,44.27
2019-03-21T03:55:40.289Z,43.90
2019-03-21T04:00:51.707Z,39.43
2019-03-21T04:06:07.797Z,41.77
2019-03-21T04:11:21.290Z,41.03
2019-03-21T04:16:37.771Z,38.27
2019-03-21T04:21:52.825Z,37.53
2019-03-21T04:27:04.655Z,36.93
2019-03-21T04:32:16.920Z,40.93
2019-03-21T04:37:28.982Z,38.40
2019-03-21T04:42:41.174Z,36.17
2019-03-21T04:47:53.153Z,40.00
2019-03-21T04:53:05.285Z,35.67
2019-03-21T04:58:16.944Z,39.20
2019-03-21T05:03:30.268Z,34.77
2019-03-21T05:08:46.035Z,34.20
2019-03-21T05:14:00.603Z,37.33
2019-03-21T05:19:11.149Z,39.33
2019-03-21T05:24:23.401Z,38.60
2019-03-21T05:29:35.284Z,38.67
2019-03-21T05:34:46.962Z,40.30
2019-03-21T05:39:57.821Z,40.90
2019-03-21T05:45:13.432Z,42.30
2019-03-21T05:50:24.459Z,43.73
2019-03-21T05:55:35.516Z,42.03
2019-03-21T06:00:52.839Z,39.77
2019-03-21T06:06:05.049Z,38.27
2019-03-21T06:11:11.226Z,43.13
2019-03-21T06:16:18.427Z,41.80
2019-03-21T06:21:27.069Z,41.50
2019-03-21T06:26:46.657Z,40.67
2019-03-21T06:31:53.203Z,37.23
2019-03-21T06:37:00.757Z,39.00
2019-03-21T06:42:06.656Z,39.20
2019-03-21T06:47:14.491Z,37.40
2019-03-21T06:52:21.045Z,40.33
2019-03-21T06:57:28.182Z,41.50
2019-03-21T07:02:35.925Z,39.10
2019-03-21T07:07:43.173Z,37.13
2019-03-21T07:12:50.012Z,39.30
2019-03-21T07:17:55.668Z,37.13
2019-03-21T07:23:02.432Z,41.73
2019-03-21T07:28:08.372Z,43.80
2019-03-21T07:33:15.215Z,42.67
2019-03-21T07:38:20.795Z,48.43
2019-03-21T07:43:27.074Z,46.47
2019-03-21T07:48:33.962Z,47.73
2019-03-21T07:53:39.855Z,49.13
2019-03-21T07:58:45.569Z,45.57
2019-03-21T08:03:51.542Z,49.13
2019-03-21T08:08:58.147Z,48.20
2019-03-21T08:14:03.981Z,43.30
2019-03-21T08:19:10.056Z,45.27
2019-03-21T08:24:17.348Z,45.93
2019-03-21T08:29:24.339Z,42.10
2019-03-21T08:34:30.106Z,42.57
2019-03-21T08:39:37.232Z,44.97
2019-03-21T08:44:44.464Z,42.40
2019-03-21T08:49:50.055Z,45.70
2019-03-21T08:54:55.726Z,41.87
2019-03-21T09:00:01.281Z,38.50
2019-03-21T09:05:10.131Z,42.87
2019-03-21T09:10:16.148Z,35.27
2019-03-21T09:15:24.195Z,39.23
2019-03-21T09:20:30.626Z,42.30
2019-03-21T09:25:38.851Z,35.67
2019-03-21T09:30:46.243Z,37.83
2019-03-21T09:35:53.757Z,35.33
2019-03-21T09:40:59.488Z,35.97
2019-03-21T09:46:06.357Z,35.07
2019-03-21T09:51:12.318Z,34.33
2019-03-21T09:56:18.152Z,36.40
2019-03-21T10:01:25.802Z,35.50
2019-03-21T10:06:32.655Z,34.47
2019-03-21T10:11:39.346Z,31.43
2019-03-21T10:16:45.726Z,35.37
2019-03-21T10:21:51.706Z,37.17
2019-03-21T10:26:57.530Z,32.47
2019-03-21T10:32:13.919Z,28.33
2019-03-21T10:37:11.124Z,27.33
2019-03-21T10:42:17.134Z,35.00
2019-03-21T10:47:22.865Z,33.27
2019-03-21T10:52:29.047Z,32.53
2019-03-21T10:57:34.800Z,30.50
2019-03-21T11:02:40.686Z,34.57
2019-03-21T11:07:47.147Z,31.30
2019-03-21T11:12:52.962Z,31.23
2019-03-21T18:06:27.792Z,38.77
2019-03-21T18:11:36.472Z,44.00
2019-03-21T18:16:44.925Z,41.37
2019-03-21T18:21:53.032Z,43.50
2019-03-21T18:26:59.310Z,38.63
2019-03-21T18:32:10.959Z,42.83
2019-03-21T18:37:16.810Z,40.13
2019-03-21T18:42:23.939Z,42.87
2019-03-21T18:47:31.381Z,40.43
2019-03-21T18:52:38.400Z,40.70
2019-03-21T18:57:45.652Z,41.67
2019-03-21T19:02:52.571Z,41.03
2019-03-21T19:07:58.328Z,40.77
2019-03-21T19:13:05.080Z,43.63
2019-03-21T19:18:12.305Z,46.73
2019-03-21T19:23:18.075Z,39.30
2019-03-21T19:28:26.304Z,44.90
2019-03-21T19:33:32.357Z,43.20
2019-03-21T19:38:38.405Z,48.17
2019-03-21T19:43:47.356Z,46.90
2019-03-21T19:48:53.107Z,46.37
2019-03-21T19:53:59.855Z,44.20
2019-03-21T19:59:06.854Z,43.20
2019-03-21T20:04:14.827Z,45.70
2019-03-21T20:09:21.217Z,43.30
2019-03-21T20:14:27.249Z,46.43
2019-03-21T20:19:34.657Z,45.03
2019-03-21T20:24:41.204Z,48.93
2019-03-21T20:29:50.360Z,44.77
2019-03-21T20:34:56.360Z,42.83
2019-03-21T20:40:02.281Z,45.10
2019-03-21T20:45:10.848Z,46.53
2019-03-21T20:50:19.168Z,45.17
2019-03-21T20:55:25.731Z,49.40
2019-03-21T21:00:32.584Z,49.87
2019-03-21T21:05:39.201Z,45.57
2019-03-21T21:10:45.357Z,47.10
2019-03-21T21:15:54.335Z,44.27
2019-03-21T21:21:00.502Z,43.87
2019-03-21T21:26:08.095Z,46.33
2019-03-21T21:31:13.995Z,42.27
2019-03-21T21:36:23.032Z,46.13
2019-03-21T21:41:29.337Z,42.93
2019-03-21T21:46:35.764Z,44.27
2019-03-21T21:51:41.436Z,43.97
2019-03-21T21:56:47.188Z,40.80
2019-03-21T22:01:54.744Z,42.63
2019-03-21T22:07:00.742Z,44.60
2019-03-21T22:12:06.911Z,47.10
2019-03-21T22:17:13.026Z,43.30
2019-03-21T22:22:19.391Z,44.47
2019-03-21T22:27:28.967Z,44.80
2019-03-21T22:32:35.311Z,46.13
2019-03-21T22:37:43.671Z,44.50
2019-03-21T22:42:49.449Z,43.47
2019-03-21T22:47:56.666Z,37.77
2019-03-21T22:53:02.254Z,41.13
2019-03-21T22:58:07.934Z,45.43
2019-03-21T23:03:16.547Z,39.57
2019-03-21T23:08:22.313Z,43.30
2019-03-21T23:13:29.083Z,40.20
2019-03-21T23:18:34.682Z,45.27
2019-03-21T23:23:41.905Z,47.00
2019-03-21T23:28:47.487Z,44.80
2019-03-21T23:33:53.141Z,43.63
2019-03-21T23:39:00.612Z,46.63
2019-03-21T23:44:08.303Z,45.43
2019-03-21T23:49:14.214Z,47.47
2019-03-21T23:54:20.483Z,49.87
2019-03-21T23:59:26.285Z,44.97
